createdAt,value
2023-05-04T00:00:56.530Z,59.17
2023-05-04T00:06:06.692Z,59.52
2023-05-04T00:11:17.761Z,59.65
2023-05-04T00:16:27.595Z,59.88
2023-05-04T00:21:37.539Z,59.83
2023-05-04T00:26:47.758Z,59.97
2023-05-04T00:31:57.369Z,59.96
2023-05-04T00:37:08.218Z,60.38
2023-05-04T00:42:18.771Z,60.39
2023-05-04T00:47:30.165Z,60.49
2023-05-04T00:52:41.614Z,60.60
2023-05-04T00:57:52.216Z,61.15
2023-05-04T01:03:02.008Z,61.93
2023-05-04T01:08:20.078Z,62.64
2023-05-04T01:13:34.231Z,62.25
2023-05-04T01:18:44.125Z,62.70
2023-05-04T01:23:53.805Z,62.29
2023-05-04T01:29:10.688Z,62.92
2023-05-04T01:34:22.071Z,62.94
2023-05-04T01:39:31.792Z,62.99
2023-05-04T01:44:41.840Z,62.94
2023-05-04T01:49:51.884Z,63.08
2023-05-04T01:55:01.825Z,63.47
2023-05-04T02:00:14.521Z,63.92
2023-05-04T02:05:24.147Z,64.01
2023-05-04T02:10:34.086Z,63.87
2023-05-04T02:15:43.815Z,63.76
2023-05-04T02:20:53.544Z,63.97
2023-05-04T02:26:03.284Z,64.18
2023-05-04T02:31:13.118Z,64.26
2023-05-04T02:36:22.923Z,64.20
2023-05-04T02:41:32.873Z,64.68
2023-05-04T02:46:42.760Z,64.86
2023-05-04T02:51:52.642Z,64.76
2023-05-04T02:57:02.668Z,65.04
2023-05-04T03:02:12.968Z,65.26
2023-05-04T03:07:22.718Z,65.10
2023-05-04T03:12:32.423Z,65.05
2023-05-04T03:17:42.346Z,65.31
2023-05-04T03:22:52.039Z,65.44
2023-05-04T03:28:02.199Z,65.29
2023-05-04T03:33:12.677Z,65.49
2023-05-04T03:38:22.754Z,65.31
2023-05-04T03:43:32.596Z,65.57
2023-05-04T03:48:42.514Z,65.50
2023-05-04T03:53:52.750Z,65.46
2023-05-04T03:59:03.336Z,65.46
2023-05-04T04:04:13.143Z,65.55
2023-05-04T04:09:22.934Z,65.61
2023-05-04T04:14:32.876Z,65.82
2023-05-04T04:19:42.867Z,65.70
2023-05-04T04:24:52.592Z,65.54
2023-05-04T04:30:02.429Z,65.47
2023-05-04T04:35:14.404Z,65.33
2023-05-04T04:40:24.221Z,65.20
2023-05-04T04:45:34.350Z,65.47
2023-05-04T04:50:45.586Z,65.42
2023-05-04T04:55:55.626Z,65.04
2023-05-04T05:01:06.558Z,65.14
2023-05-04T05:06:17.046Z,65.21
2023-05-04T05:11:26.990Z,64.75
2023-05-04T05:16:36.739Z,64.18
2023-05-04T05:21:46.816Z,62.88
2023-05-04T05:26:56.664Z,62.48
2023-05-04T05:32:06.923Z,62.78
2023-05-04T05:37:16.827Z,62.97
2023-05-04T05:42:26.545Z,62.74
2023-05-04T05:47:37.135Z,62.28
2023-05-04T05:52:47.271Z,61.74
2023-05-04T05:57:57.295Z,61.61
2023-05-04T06:03:08.098Z,61.29
2023-05-04T06:08:18.776Z,60.60
2023-05-04T06:13:28.881Z,59.63
2023-05-04T06:18:38.668Z,58.96
2023-05-04T06:23:49.372Z,58.85
2023-05-04T06:28:59.289Z,57.93
2023-05-04T06:34:09.336Z,58.17
2023-05-04T06:39:19.701Z,58.10
2023-05-04T06:44:29.524Z,57.88
2023-05-04T06:49:40.068Z,57.58
2023-05-04T06:54:49.975Z,57.28
2023-05-04T06:59:59.784Z,56.69
2023-05-04T07:05:11.427Z,55.79
2023-05-04T07:10:22.296Z,55.10
2023-05-04T07:15:34.407Z,53.69
2023-05-04T07:20:45.491Z,52.75
2023-05-04T07:25:55.286Z,51.78
2023-05-04T07:31:05.952Z,51.43
2023-05-04T07:36:16.135Z,49.32
2023-05-04T07:41:26.654Z,47.42
2023-05-04T07:46:36.769Z,48.60
2023-05-04T07:51:46.843Z,46.99
2023-05-04T07:56:56.764Z,47.92
2023-05-04T08:02:08.227Z,47.13
2023-05-04T08:07:19.539Z,46.19
2023-05-04T08:12:29.475Z,46.03
2023-05-04T08:17:41.039Z,45.13
2023-05-04T08:22:51.035Z,45.17
2023-05-04T08:28:00.870Z,44.20
2023-05-04T08:33:10.986Z,43.85
2023-05-04T08:38:21.151Z,42.33
2023-05-04T08:43:35.798Z,41.53
2023-05-04T08:48:46.682Z,41.60
2023-05-04T08:53:58.032Z,41.40
2023-05-04T08:59:10.338Z,37.95
2023-05-04T09:04:22.619Z,38.28
2023-05-04T09:09:33.561Z,37.23
2023-05-04T09:14:44.020Z,38.13
2023-05-04T09:20:03.454Z,37.37
2023-05-04T09:25:17.974Z,38.02
2023-05-04T09:30:28.270Z,38.53
2023-05-04T09:35:43.280Z,38.60
2023-05-04T09:40:53.435Z,38.84
2023-05-04T09:46:03.526Z,38.50
2023-05-04T09:51:16.452Z,37.78
2023-05-04T09:56:43.632Z,37.53
2023-05-04T10:01:54.394Z,36.69
2023-05-04T10:07:06.714Z,36.78
2023-05-04T10:12:17.055Z,35.99
2023-05-04T10:18:00.730Z,35.28
2023-05-04T10:23:46.154Z,36.97
2023-05-04T10:29:13.762Z,37.42
2023-05-04T10:34:31.978Z,37.47
2023-05-04T10:39:42.480Z,37.15
2023-05-04T10:44:59.302Z,37.19
2023-05-04T10:50:14.876Z,37.32
2023-05-04T10:55:26.338Z,37.46
2023-05-04T11:00:44.994Z,37.29
2023-05-04T11:05:56.099Z,37.04
2023-05-04T11:11:11.483Z,36.63
2023-05-04T11:16:28.837Z,36.09
2023-05-04T11:21:38.585Z,36.38
2023-05-04T11:26:54.686Z,36.01
2023-05-04T11:32:04.473Z,35.94
2023-05-04T11:37:14.470Z,35.92
2023-05-04T11:42:24.807Z,35.90
2023-05-04T11:47:34.886Z,35.88
2023-05-04T11:52:45.349Z,35.92
2023-05-04T11:58:02.540Z,35.85
2023-05-04T12:03:15.056Z,35.89
2023-05-04T12:08:35.168Z,35.78
2023-05-04T12:13:47.712Z,35.47
2023-05-04T12:19:07.814Z,35.51
2023-05-04T12:24:17.763Z,35.84
2023-05-04T12:29:27.419Z,35.42
2023-05-04T12:34:38.549Z,35.00
2023-05-04T12:39:49.391Z,35.17
2023-05-04T12:44:59.127Z,35.26
2023-05-04T12:50:11.701Z,34.99
2023-05-04T12:55:24.660Z,35.17
2023-05-04T13:00:36.516Z,35.29
2023-05-04T13:05:46.804Z,35.09
2023-05-04T13:10:56.446Z,34.88
2023-05-04T13:16:06.622Z,34.91
2023-05-04T13:21:17.895Z,34.67
2023-05-04T13:26:27.660Z,35.03
2023-05-04T13:31:37.593Z,35.49
2023-05-04T13:36:48.253Z,35.15
2023-05-04T13:41:57.897Z,35.04
2023-05-04T13:47:07.890Z,35.01
2023-05-04T13:52:17.599Z,35.03
2023-05-04T13:57:28.906Z,34.68
2023-05-04T14:02:38.948Z,35.00
2023-05-04T14:07:48.701Z,34.56
2023-05-04T14:12:58.716Z,34.97
2023-05-04T14:18:09.199Z,35.08
2023-05-04T14:23:18.842Z,35.49
2023-05-04T14:28:28.577Z,35.41
2023-05-04T14:33:38.435Z,35.48
2023-05-04T14:38:49.065Z,35.60
2023-05-04T14:43:58.805Z,35.63
2023-05-04T14:49:08.936Z,35.49
2023-05-04T14:54:18.981Z,35.33
2023-05-04T14:59:29.058Z,35.31
2023-05-04T15:04:39.059Z,35.38
2023-05-04T15:09:48.632Z,35.44
2023-05-04T15:14:58.387Z,35.42
2023-05-04T15:20:10.119Z,35.90
2023-05-04T15:25:23.715Z,35.84
2023-05-04T15:30:33.439Z,35.78
2023-05-04T15:35:43.610Z,35.56
2023-05-04T15:40:53.781Z,35.49
2023-05-04T15:46:03.384Z,35.71
2023-05-04T15:51:15.778Z,35.71
2023-05-04T15:56:25.415Z,35.60
2023-05-04T16:01:35.220Z,35.62
2023-05-04T16:06:44.987Z,35.60
2023-05-04T16:11:54.540Z,35.64
2023-05-04T16:17:04.948Z,35.49
2023-05-04T16:22:15.286Z,35.86
2023-05-04T16:27:27.236Z,36.01
2023-05-04T16:32:37.322Z,36.30
2023-05-04T16:37:47.087Z,36.60
2023-05-04T16:42:56.761Z,36.94
2023-05-04T16:48:07.165Z,37.17
2023-05-04T16:53:17.137Z,37.57
2023-05-04T16:58:27.164Z,38.54
2023-05-04T17:03:36.888Z,39.38
2023-05-04T17:08:46.663Z,39.70
2023-05-04T17:13:56.708Z,40.38
2023-05-04T17:19:08.181Z,40.94
2023-05-04T17:24:20.017Z,41.27
2023-05-04T17:29:29.696Z,41.58
2023-05-04T17:34:39.726Z,42.28
2023-05-04T17:39:49.530Z,42.41
2023-05-04T17:44:59.524Z,42.94
2023-05-04T17:50:10.772Z,43.42
2023-05-04T17:55:20.494Z,43.58
2023-05-04T18:00:30.788Z,43.99
2023-05-04T18:05:41.493Z,44.13
2023-05-04T18:10:51.101Z,43.96
2023-05-04T18:16:01.048Z,44.25
2023-05-04T18:21:11.410Z,44.44
2023-05-04T18:26:25.172Z,44.67
2023-05-04T18:31:34.972Z,44.92
2023-05-04T18:36:45.560Z,45.02
2023-05-04T18:41:56.476Z,45.27
2023-05-04T18:47:06.188Z,45.54
2023-05-04T18:52:15.924Z,45.70
2023-05-04T18:57:26.451Z,45.87
2023-05-04T19:02:38.139Z,46.02
2023-05-04T19:07:48.076Z,46.31
2023-05-04T19:12:58.148Z,46.43
2023-05-04T19:18:07.927Z,46.76
2023-05-04T19:23:17.915Z,47.03
2023-05-04T19:28:27.582Z,47.63
2023-05-04T19:33:47.996Z,47.90
2023-05-04T19:38:58.396Z,48.46
2023-05-04T19:44:10.441Z,48.73
2023-05-04T19:49:22.257Z,49.31
2023-05-04T19:54:32.308Z,49.60
2023-05-04T19:59:42.654Z,49.91
2023-05-04T20:04:54.147Z,50.29
2023-05-04T20:10:04.051Z,50.74
2023-05-04T20:15:14.283Z,51.13
2023-05-04T20:20:24.234Z,51.60
2023-05-04T20:25:33.952Z,51.72
2023-05-04T20:30:43.671Z,52.27
2023-05-04T20:35:53.339Z,52.28
2023-05-04T20:41:08.786Z,52.52
2023-05-04T20:46:18.573Z,52.52
2023-05-04T20:51:28.685Z,52.26
2023-05-04T20:56:38.313Z,52.36
2023-05-04T21:01:47.999Z,52.56
2023-05-04T21:06:58.224Z,52.62
2023-05-04T21:12:08.472Z,51.90
2023-05-04T21:17:18.154Z,51.65
2023-05-04T21:22:28.648Z,51.62
2023-05-04T21:27:38.303Z,51.75
2023-05-04T21:32:48.168Z,51.83
2023-05-04T21:37:57.953Z,51.85
2023-05-04T21:43:07.820Z,52.05
2023-05-04T21:48:17.516Z,52.03
2023-05-04T21:53:27.192Z,52.13
2023-05-04T21:58:37.443Z,52.05
2023-05-04T22:03:47.659Z,52.10
2023-05-04T22:08:57.636Z,51.94
2023-05-04T22:14:07.646Z,52.10
2023-05-04T22:19:17.385Z,52.29
2023-05-04T22:24:27.317Z,52.38
2023-05-04T22:29:38.945Z,52.76
2023-05-04T22:34:49.105Z,53.21
2023-05-04T22:40:00.603Z,53.49
2023-05-04T22:45:13.380Z,53.76
2023-05-04T22:50:23.215Z,53.87
2023-05-04T22:55:33.375Z,54.41
2023-05-04T23:00:43.475Z,54.83
2023-05-04T23:05:54.203Z,55.15
2023-05-04T23:11:03.947Z,55.79
2023-05-04T23:16:14.446Z,56.59
2023-05-04T23:21:24.301Z,56.53
2023-05-04T23:26:34.252Z,57.12
2023-05-04T23:31:43.894Z,57.51
2023-05-04T23:36:54.244Z,57.85
2023-05-04T23:42:04.032Z,57.81
2023-05-04T23:47:13.980Z,57.92
2023-05-04T23:52:23.787Z,58.10
2023-05-04T23:57:33.888Z,58.23
